sensor_id;sensor_type;location;lat;lon;timestamp;P1;durP1;ratioP1;P2;durP2;ratioP2
1014;SDS011;8170;48.118;11.628;2023-02-25T00:01:13;10.15;;;7.55;;
1014;SDS011;8170;48.118;11.628;2023-02-25T00:02:17;10.30;;;7.20;;
1014;SDS011;8170;48.118;11.628;2023-02-25T00:03:19;8.50;;;6.60;;
1014;SDS011;8170;48.118;11.628;2023-02-25T00:04:25;10.70;;;6.47;;
1014;SDS011;8170;48.118;11.628;2023-02-25T00:05:28;9.63;;;6.95;;
1014;SDS011;8170;48.118;11.628;2023-02-25T00:06:32;10.65;;;7.00;;
1014;SDS011;8170;48.118;11.628;2023-02-25T00:07:34;9.93;;;7.20;;
1014;SDS011;8170;48.118;11.628;2023-02-25T00:08:38;10.85;;;7.65;;
1014;SDS011;8170;48.118;11.628;2023-02-25T00:09:43;8.85;;;6.72;;
1014;SDS011;8170;48.118;11.628;2023-02-25T00:10:54;6.95;;;5.95;;
1014;SDS011;8170;48.118;11.628;2023-02-25T00:11:58;8.77;;;6.25;;
1014;SDS011;8170;48.118;11.628;2023-02-25T00:13:06;12.45;;;6.70;;
1014;SDS011;8170;48.118;11.628;2023-02-25T00:14:18;8.25;;;6.03;;
1014;SDS011;8170;48.118;11.628;2023-02-25T00:15:22;8.82;;;6.03;;
1014;SDS011;8170;48.118;11.628;2023-02-25T00:16:24;9.85;;;6.20;;
1014;SDS011;8170;48.118;11.628;2023-02-25T00:17:27;10.00;;;6.82;;
1014;SDS011;8170;48.118;11.628;2023-02-25T00:18:30;7.90;;;6.45;;
1014;SDS011;8170;48.118;11.628;2023-02-25T00:19:33;8.45;;;6.05;;
1014;SDS011;8170;48.118;11.628;2023-02-25T00:20:37;11.00;;;6.45;;
1014;SDS011;8170;48.118;11.628;2023-02-25T00:21:41;8.93;;;6.35;;
1014;SDS011;8170;48.118;11.628;2023-02-25T00:22:43;7.65;;;6.13;;
1014;SDS011;8170;48.118;11.628;2023-02-25T00:23:47;9.05;;;6.15;;
1014;SDS011;8170;48.118;11.628;2023-02-25T00:24:50;7.75;;;5.47;;
1014;SDS011;8170;48.118;11.628;2023-02-25T00:25:56;7.97;;;5.63;;
1014;SDS011;8170;48.118;11.628;2023-02-25T00:26:59;8.40;;;6.10;;
1014;SDS011;8170;48.118;11.628;2023-02-25T00:28:02;8.77;;;5.82;;
1014;SDS011;8170;48.118;11.628;2023-02-25T00:29:08;9.20;;;5.90;;
1014;SDS011;8170;48.118;11.628;2023-02-25T00:30:12;8.60;;;6.20;;
1014;SDS011;8170;48.118;11.628;2023-02-25T00:31:15;8.70;;;5.80;;
1014;SDS011;8170;48.118;11.628;2023-02-25T00:32:20;7.85;;;5.88;;
1014;SDS011;8170;48.118;11.628;2023-02-25T00:33:23;8.55;;;5.88;;
1014;SDS011;8170;48.118;11.628;2023-02-25T00:34:26;8.20;;;5.72;;
1014;SDS011;8170;48.118;11.628;2023-02-25T00:35:30;7.13;;;5.70;;
1014;SDS011;8170;48.118;11.628;2023-02-25T00:36:33;7.10;;;5.47;;
1014;SDS011;8170;48.118;11.628;2023-02-25T00:37:35;7.25;;;5.32;;
1014;SDS011;8170;48.118;11.628;2023-02-25T00:38:38;8.15;;;5.90;;
1014;SDS011;8170;48.118;11.628;2023-02-25T00:39:41;7.65;;;5.03;;
1014;SDS011;8170;48.118;11.628;2023-02-25T00:40:45;7.28;;;5.00;;
1014;SDS011;8170;48.118;11.628;2023-02-25T00:41:47;7.45;;;4.20;;
1014;SDS011;8170;48.118;11.628;2023-02-25T00:42:54;9.43;;;5.35;;
1014;SDS011;8170;48.118;11.628;2023-02-25T00:43:57;6.55;;;5.00;;
1014;SDS011;8170;48.118;11.628;2023-02-25T00:45:02;8.32;;;5.22;;
1014;SDS011;8170;48.118;11.628;2023-02-25T00:46:05;9.30;;;5.30;;
1014;SDS011;8170;48.118;11.628;2023-02-25T00:47:10;6.50;;;4.70;;
1014;SDS011;8170;48.118;11.628;2023-02-25T00:48:12;6.07;;;4.63;;
1014;SDS011;8170;48.118;11.628;2023-02-25T00:49:15;8.65;;;5.13;;
1014;SDS011;8170;48.118;11.628;2023-02-25T00:50:33;6.88;;;5.30;;
1014;SDS011;8170;48.118;11.628;2023-02-25T00:51:37;6.90;;;5.15;;
1014;SDS011;8170;48.118;11.628;2023-02-25T00:52:39;5.32;;;4.20;;
1014;SDS011;8170;48.118;11.628;2023-02-25T00:53:43;7.82;;;4.70;;
1014;SDS011;8170;48.118;11.628;2023-02-25T00:54:45;5.43;;;4.32;;
1014;SDS011;8170;48.118;11.628;2023-02-25T00:55:56;6.88;;;4.57;;
1014;SDS011;8170;48.118;11.628;2023-02-25T00:56:59;6.57;;;4.65;;
1014;SDS011;8170;48.118;11.628;2023-02-25T00:58:02;6.43;;;4.30;;
1014;SDS011;8170;48.118;11.628;2023-02-25T00:59:04;5.55;;;4.22;;
1014;SDS011;8170;48.118;11.628;2023-02-25T01:00:10;8.50;;;4.57;;
1014;SDS011;8170;48.118;11.628;2023-02-25T01:01:17;7.82;;;4.40;;
1014;SDS011;8170;48.118;11.628;2023-02-25T01:02:23;5.03;;;3.80;;
1014;SDS011;8170;48.118;11.628;2023-02-25T01:03:25;5.25;;;4.40;;
1014;SDS011;8170;48.118;11.628;2023-02-25T01:04:28;6.53;;;4.05;;
1014;SDS011;8170;48.118;11.628;2023-02-25T01:05:30;6.68;;;4.00;;
1014;SDS011;8170;48.118;11.628;2023-02-25T01:06:35;5.13;;;3.80;;
1014;SDS011;8170;48.118;11.628;2023-02-25T01:07:38;5.80;;;3.80;;
1014;SDS011;8170;48.118;11.628;2023-02-25T01:08:42;6.18;;;4.20;;
1014;SDS011;8170;48.118;11.628;2023-02-25T01:09:44;6.80;;;4.15;;
1014;SDS011;8170;48.118;11.628;2023-02-25T01:10:47;7.45;;;4.30;;
1014;SDS011;8170;48.118;11.628;2023-02-25T01:11:50;6.07;;;3.92;;
1014;SDS011;8170;48.118;11.628;2023-02-25T01:12:53;5.75;;;4.05;;
1014;SDS011;8170;48.118;11.628;2023-02-25T01:13:55;5.35;;;4.30;;
1014;SDS011;8170;48.118;11.628;2023-02-25T01:15:00;5.68;;;4.35;;
1014;SDS011;8170;48.118;11.628;2023-02-25T01:16:09;6.38;;;4.13;;
1014;SDS011;8170;48.118;11.628;2023-02-25T01:17:14;4.10;;;3.70;;
1014;SDS011;8170;48.118;11.628;2023-02-25T01:18:16;5.45;;;3.85;;
1014;SDS011;8170;48.118;11.628;2023-02-25T01:19:22;5.03;;;3.50;;
1014;SDS011;8170;48.118;11.628;2023-02-25T01:20:25;4.85;;;3.75;;
1014;SDS011;8170;48.118;11.628;2023-02-25T01:21:31;4.18;;;3.08;;
1014;SDS011;8170;48.118;11.628;2023-02-25T01:22:35;5.82;;;3.30;;
1014;SDS011;8170;48.118;11.628;2023-02-25T01:23:42;4.70;;;3.42;;
1014;SDS011;8170;48.118;11.628;2023-02-25T01:24:45;3.90;;;3.00;;
1014;SDS011;8170;48.118;11.628;2023-02-25T01:25:48;4.18;;;3.22;;
1014;SDS011;8170;48.118;11.628;2023-02-25T01:26:51;5.82;;;3.75;;
1014;SDS011;8170;48.118;11.628;2023-02-25T01:27:55;7.25;;;3.83;;
1014;SDS011;8170;48.118;11.628;2023-02-25T01:28:58;4.95;;;3.25;;
1014;SDS011;8170;48.118;11.628;2023-02-25T01:30:01;3.40;;;3.00;;
1014;SDS011;8170;48.118;11.628;2023-02-25T01:31:03;4.65;;;3.55;;
1014;SDS011;8170;48.118;11.628;2023-02-25T01:32:10;5.55;;;3.97;;
1014;SDS011;8170;48.118;11.628;2023-02-25T01:33:14;4.72;;;3.30;;
1014;SDS011;8170;48.118;11.628;2023-02-25T01:34:17;5.63;;;4.05;;
1014;SDS011;8170;48.118;11.628;2023-02-25T01:35:19;5.40;;;3.75;;
1014;SDS011;8170;48.118;11.628;2023-02-25T01:36:24;4.85;;;3.70;;
1014;SDS011;8170;48.118;11.628;2023-02-25T01:37:26;5.38;;;3.58;;
1014;SDS011;8170;48.118;11.628;2023-02-25T01:38:29;5.25;;;4.28;;
1014;SDS011;8170;48.118;11.628;2023-02-25T01:39:32;4.88;;;3.50;;
1014;SDS011;8170;48.118;11.628;2023-02-25T01:40:35;5.68;;;4.30;;
1014;SDS011;8170;48.118;11.628;2023-02-25T01:41:38;5.45;;;3.72;;
1014;SDS011;8170;48.118;11.628;2023-02-25T01:42:42;5.88;;;4.45;;
1014;SDS011;8170;48.118;11.628;2023-02-25T01:44:00;5.68;;;4.20;;
1014;SDS011;8170;48.118;11.628;2023-02-25T01:46:33;5.40;;;4.40;;
1014;SDS011;8170;48.118;11.628;2023-02-25T01:47:36;5.43;;;4.30;;
1014;SDS011;8170;48.118;11.628;2023-02-25T01:48:41;5.53;;;4.25;;
1014;SDS011;8170;48.118;11.628;2023-02-25T01:49:44;8.02;;;5.20;;
1014;SDS011;8170;48.118;11.628;2023-02-25T01:50:49;5.70;;;4.47;;
1014;SDS011;8170;48.118;11.628;2023-02-25T01:51:54;4.78;;;4.05;;
1014;SDS011;8170;48.118;11.628;2023-02-25T01:53:00;7.30;;;3.97;;
1014;SDS011;8170;48.118;11.628;2023-02-25T01:54:04;6.28;;;4.35;;
1014;SDS011;8170;48.118;11.628;2023-02-25T01:55:10;5.68;;;4.35;;
1014;SDS011;8170;48.118;11.628;2023-02-25T01:56:13;6.30;;;4.68;;
1014;SDS011;8170;48.118;11.628;2023-02-25T01:57:21;6.28;;;4.90;;
1014;SDS011;8170;48.118;11.628;2023-02-25T01:58:25;4.70;;;3.90;;
1014;SDS011;8170;48.118;11.628;2023-02-25T01:59:29;4.47;;;3.65;;
1014;SDS011;8170;48.118;11.628;2023-02-25T02:00:31;4.72;;;3.80;;
1014;SDS011;8170;48.118;11.628;2023-02-25T02:01:35;5.10;;;3.83;;
1014;SDS011;8170;48.118;11.628;2023-02-25T02:02:41;6.03;;;4.20;;
1014;SDS011;8170;48.118;11.628;2023-02-25T02:03:46;4.60;;;4.10;;
1014;SDS011;8170;48.118;11.628;2023-02-25T02:04:51;5.03;;;3.80;;
1014;SDS011;8170;48.118;11.628;2023-02-25T02:05:58;4.13;;;3.67;;
1014;SDS011;8170;48.118;11.628;2023-02-25T02:07:05;4.45;;;3.22;;
1014;SDS011;8170;48.118;11.628;2023-02-25T02:08:09;5.07;;;3.67;;
1014;SDS011;8170;48.118;11.628;2023-02-25T02:09:12;5.97;;;3.45;;
1014;SDS011;8170;48.118;11.628;2023-02-25T02:10:17;5.38;;;4.00;;
1014;SDS011;8170;48.118;11.628;2023-02-25T02:11:20;4.65;;;4.05;;
1014;SDS011;8170;48.118;11.628;2023-02-25T02:12:23;4.30;;;3.40;;
1014;SDS011;8170;48.118;11.628;2023-02-25T02:13:28;6.15;;;3.72;;
1014;SDS011;8170;48.118;11.628;2023-02-25T02:14:34;5.40;;;4.10;;
1014;SDS011;8170;48.118;11.628;2023-02-25T02:15:39;5.07;;;4.10;;
1014;SDS011;8170;48.118;11.628;2023-02-25T02:16:56;4.85;;;3.50;;
1014;SDS011;8170;48.118;11.628;2023-02-25T02:18:10;6.60;;;4.60;;
1014;SDS011;8170;48.118;11.628;2023-02-25T02:19:19;4.38;;;3.22;;
1014;SDS011;8170;48.118;11.628;2023-02-25T02:20:29;4.35;;;3.38;;
1014;SDS011;8170;48.118;11.628;2023-02-25T02:21:44;4.13;;;3.60;;
1014;SDS011;8170;48.118;11.628;2023-02-25T02:22:59;4.40;;;3.67;;
1014;SDS011;8170;48.118;11.628;2023-02-25T02:24:28;4.75;;;3.72;;
1014;SDS011;8170;48.118;11.628;2023-02-25T02:27:30;4.43;;;3.50;;
1014;SDS011;8170;48.118;11.628;2023-02-25T02:28:54;3.88;;;3.30;;
1014;SDS011;8170;48.118;11.628;2023-02-25T02:30:17;4.32;;;3.20;;
1014;SDS011;8170;48.118;11.628;2023-02-25T02:31:38;4.25;;;3.00;;
1014;SDS011;8170;48.118;11.628;2023-02-25T02:32:49;3.22;;;2.72;;
1014;SDS011;8170;48.118;11.628;2023-02-25T02:34:00;3.72;;;3.22;;
1014;SDS011;8170;48.118;11.628;2023-02-25T02:35:11;4.25;;;2.85;;
1014;SDS011;8170;48.118;11.628;2023-02-25T02:36:20;3.60;;;2.50;;
1014;SDS011;8170;48.118;11.628;2023-02-25T02:37:34;3.63;;;2.70;;
1014;SDS011;8170;48.118;11.628;2023-02-25T02:38:43;3.15;;;2.60;;
1014;SDS011;8170;48.118;11.628;2023-02-25T02:39:52;4.28;;;3.00;;
1014;SDS011;8170;48.118;11.628;2023-02-25T02:41:06;4.78;;;3.33;;
1014;SDS011;8170;48.118;11.628;2023-02-25T02:42:18;3.72;;;2.97;;
1014;SDS011;8170;48.118;11.628;2023-02-25T02:43:33;7.07;;;3.30;;
1014;SDS011;8170;48.118;11.628;2023-02-25T02:44:41;3.50;;;2.70;;
1014;SDS011;8170;48.118;11.628;2023-02-25T02:45:55;4.57;;;3.00;;
1014;SDS011;8170;48.118;11.628;2023-02-25T02:47:04;3.78;;;2.67;;
1014;SDS011;8170;48.118;11.628;2023-02-25T02:48:13;3.67;;;2.60;;
1014;SDS011;8170;48.118;11.628;2023-02-25T02:49:19;3.70;;;2.75;;
1014;SDS011;8170;48.118;11.628;2023-02-25T02:50:25;3.35;;;2.42;;
1014;SDS011;8170;48.118;11.628;2023-02-25T02:51:37;2.47;;;2.00;;
1014;SDS011;8170;48.118;11.628;2023-02-25T02:52:47;2.95;;;2.42;;
1014;SDS011;8170;48.118;11.628;2023-02-25T02:53:53;3.15;;;2.55;;
1014;SDS011;8170;48.118;11.628;2023-02-25T02:55:00;4.20;;;2.65;;
1014;SDS011;8170;48.118;11.628;2023-02-25T02:56:07;4.10;;;2.63;;
1014;SDS011;8170;48.118;11.628;2023-02-25T02:57:12;3.72;;;2.67;;
1014;SDS011;8170;48.118;11.628;2023-02-25T02:58:20;2.83;;;2.10;;
1014;SDS011;8170;48.118;11.628;2023-02-25T02:59:27;3.30;;;2.60;;
1014;SDS011;8170;48.118;11.628;2023-02-25T03:00:36;3.90;;;2.40;;
1014;SDS011;8170;48.118;11.628;2023-02-25T03:01:43;3.55;;;2.00;;
1014;SDS011;8170;48.118;11.628;2023-02-25T03:02:55;3.05;;;2.45;;
1014;SDS011;8170;48.118;11.628;2023-02-25T03:04:01;2.95;;;2.38;;
1014;SDS011;8170;48.118;11.628;2023-02-25T03:05:08;3.75;;;2.60;;
1014;SDS011;8170;48.118;11.628;2023-02-25T03:06:13;3.15;;;2.45;;
1014;SDS011;8170;48.118;11.628;2023-02-25T03:07:19;4.40;;;3.10;;
1014;SDS011;8170;48.118;11.628;2023-02-25T03:08:24;3.13;;;2.63;;
1014;SDS011;8170;48.118;11.628;2023-02-25T03:09:32;2.67;;;2.30;;
1014;SDS011;8170;48.118;11.628;2023-02-25T03:10:36;2.50;;;2.22;;
1014;SDS011;8170;48.118;11.628;2023-02-25T03:11:40;2.95;;;2.40;;
1014;SDS011;8170;48.118;11.628;2023-02-25T03:12:42;3.97;;;2.22;;
1014;SDS011;8170;48.118;11.628;2023-02-25T03:13:45;3.05;;;2.58;;
1014;SDS011;8170;48.118;11.628;2023-02-25T03:14:49;4.07;;;2.13;;
1014;SDS011;8170;48.118;11.628;2023-02-25T03:15:51;3.60;;;2.20;;
1014;SDS011;8170;48.118;11.628;2023-02-25T03:16:55;4.18;;;2.35;;
1014;SDS011;8170;48.118;11.628;2023-02-25T03:18:04;2.67;;;2.38;;
1014;SDS011;8170;48.118;11.628;2023-02-25T03:19:13;3.00;;;2.67;;
1014;SDS011;8170;48.118;11.628;2023-02-25T03:20:19;2.75;;;2.22;;
1014;SDS011;8170;48.118;11.628;2023-02-25T03:21:28;3.20;;;2.33;;
1014;SDS011;8170;48.118;11.628;2023-02-25T03:22:35;3.75;;;1.92;;
1014;SDS011;8170;48.118;11.628;2023-02-25T03:23:42;3.20;;;1.90;;
1014;SDS011;8170;48.118;11.628;2023-02-25T03:24:49;2.53;;;1.95;;
1014;SDS011;8170;48.118;11.628;2023-02-25T03:26:02;2.60;;;2.00;;
1014;SDS011;8170;48.118;11.628;2023-02-25T03:27:23;2.70;;;2.20;;
1014;SDS011;8170;48.118;11.628;2023-02-25T03:28:34;3.88;;;2.08;;
1014;SDS011;8170;48.118;11.628;2023-02-25T03:29:36;2.53;;;2.00;;
1014;SDS011;8170;48.118;11.628;2023-02-25T03:30:40;3.47;;;2.40;;
1014;SDS011;8170;48.118;11.628;2023-02-25T03:31:50;2.58;;;1.95;;
1014;SDS011;8170;48.118;11.628;2023-02-25T03:32:58;2.83;;;1.75;;
1014;SDS011;8170;48.118;11.628;2023-02-25T03:34:07;2.97;;;2.20;;
1014;SDS011;8170;48.118;11.628;2023-02-25T03:35:13;2.67;;;1.50;;
1014;SDS011;8170;48.118;11.628;2023-02-25T03:36:18;2.72;;;1.90;;
1014;SDS011;8170;48.118;11.628;2023-02-25T03:37:26;3.53;;;1.77;;
1014;SDS011;8170;48.118;11.628;2023-02-25T03:38:31;2.80;;;1.83;;
1014;SDS011;8170;48.118;11.628;2023-02-25T03:39:36;2.88;;;1.73;;
1014;SDS011;8170;48.118;11.628;2023-02-25T03:40:42;1.70;;;1.60;;
1014;SDS011;8170;48.118;11.628;2023-02-25T03:41:49;2.22;;;1.67;;
1014;SDS011;8170;48.118;11.628;2023-02-25T03:42:56;5.00;;;1.75;;
1014;SDS011;8170;48.118;11.628;2023-02-25T03:44:03;2.53;;;1.67;;
1014;SDS011;8170;48.118;11.628;2023-02-25T03:45:10;1.75;;;1.55;;
1014;SDS011;8170;48.118;11.628;2023-02-25T03:46:15;3.95;;;1.88;;
1014;SDS011;8170;48.118;11.628;2023-02-25T03:47:21;2.47;;;1.30;;
1014;SDS011;8170;48.118;11.628;2023-02-25T03:48:26;2.80;;;1.40;;
1014;SDS011;8170;48.118;11.628;2023-02-25T03:49:33;2.38;;;1.40;;
1014;SDS011;8170;48.118;11.628;2023-02-25T03:50:41;2.33;;;1.42;;
1014;SDS011;8170;48.118;11.628;2023-02-25T03:51:49;2.63;;;1.58;;
1014;SDS011;8170;48.118;11.628;2023-02-25T03:52:57;1.60;;;1.15;;
1014;SDS011;8170;48.118;11.628;2023-02-25T03:54:18;4.30;;;1.40;;
1014;SDS011;8170;48.118;11.628;2023-02-25T03:55:23;1.90;;;1.30;;
1014;SDS011;8170;48.118;11.628;2023-02-25T03:56:25;3.40;;;1.63;;
1014;SDS011;8170;48.118;11.628;2023-02-25T03:57:33;2.97;;;1.40;;
1014;SDS011;8170;48.118;11.628;2023-02-25T03:58:38;2.05;;;1.33;;
1014;SDS011;8170;48.118;11.628;2023-02-25T03:59:43;2.08;;;1.40;;
1014;SDS011;8170;48.118;11.628;2023-02-25T04:00:46;2.30;;;1.70;;
1014;SDS011;8170;48.118;11.628;2023-02-25T04:01:54;2.00;;;1.70;;
1014;SDS011;8170;48.118;11.628;2023-02-25T04:02:59;1.30;;;1.00;;
1014;SDS011;8170;48.118;11.628;2023-02-25T04:04:02;2.47;;;1.67;;
1014;SDS011;8170;48.118;11.628;2023-02-25T04:05:06;3.78;;;1.42;;
1014;SDS011;8170;48.118;11.628;2023-02-25T04:06:11;2.10;;;1.30;;
1014;SDS011;8170;48.118;11.628;2023-02-25T04:07:14;2.20;;;1.30;;
1014;SDS011;8170;48.118;11.628;2023-02-25T04:08:17;1.77;;;1.40;;
1014;SDS011;8170;48.118;11.628;2023-02-25T04:09:19;1.65;;;1.38;;
1014;SDS011;8170;48.118;11.628;2023-02-25T04:10:23;1.58;;;1.30;;
1014;SDS011;8170;48.118;11.628;2023-02-25T04:11:26;2.10;;;1.60;;
1014;SDS011;8170;48.118;11.628;2023-02-25T04:12:29;2.67;;;1.80;;
1014;SDS011;8170;48.118;11.628;2023-02-25T04:13:32;2.13;;;1.55;;
1014;SDS011;8170;48.118;11.628;2023-02-25T04:14:35;2.78;;;1.70;;
1014;SDS011;8170;48.118;11.628;2023-02-25T04:15:37;2.25;;;1.60;;
1014;SDS011;8170;48.118;11.628;2023-02-25T04:16:43;2.65;;;1.90;;
1014;SDS011;8170;48.118;11.628;2023-02-25T04:17:46;2.92;;;1.75;;
1014;SDS011;8170;48.118;11.628;2023-02-25T04:18:49;3.08;;;1.80;;
1014;SDS011;8170;48.118;11.628;2023-02-25T04:19:52;2.50;;;1.70;;
1014;SDS011;8170;48.118;11.628;2023-02-25T04:20:56;2.00;;;1.70;;
1014;SDS011;8170;48.118;11.628;2023-02-25T04:21:59;2.25;;;1.90;;
1014;SDS011;8170;48.118;11.628;2023-02-25T04:23:02;3.30;;;1.90;;
1014;SDS011;8170;48.118;11.628;2023-02-25T04:24:04;2.30;;;1.75;;
1014;SDS011;8170;48.118;11.628;2023-02-25T04:25:09;2.20;;;1.50;;
1014;SDS011;8170;48.118;11.628;2023-02-25T04:26:11;2.67;;;1.80;;
1014;SDS011;8170;48.118;11.628;2023-02-25T04:27:14;2.20;;;1.42;;
1014;SDS011;8170;48.118;11.628;2023-02-25T04:28:17;3.25;;;1.80;;
1014;SDS011;8170;48.118;11.628;2023-02-25T04:29:20;2.97;;;2.08;;
1014;SDS011;8170;48.118;11.628;2023-02-25T04:30:22;6.15;;;2.70;;
1014;SDS011;8170;48.118;11.628;2023-02-25T04:31:26;2.92;;;2.08;;
1014;SDS011;8170;48.118;11.628;2023-02-25T04:32:28;2.95;;;2.20;;
1014;SDS011;8170;48.118;11.628;2023-02-25T04:33:31;3.13;;;2.40;;
1014;SDS011;8170;48.118;11.628;2023-02-25T04:34:33;3.30;;;2.17;;
1014;SDS011;8170;48.118;11.628;2023-02-25T04:35:36;2.80;;;2.40;;
1014;SDS011;8170;48.118;11.628;2023-02-25T04:36:40;2.60;;;2.25;;
1014;SDS011;8170;48.118;11.628;2023-02-25T04:37:44;4.80;;;3.17;;
1014;SDS011;8170;48.118;11.628;2023-02-25T04:38:47;5.32;;;2.42;;
1014;SDS011;8170;48.118;11.628;2023-02-25T04:39:49;3.53;;;3.00;;
1014;SDS011;8170;48.118;11.628;2023-02-25T04:40:52;5.78;;;3.40;;
1014;SDS011;8170;48.118;11.628;2023-02-25T04:41:54;4.65;;;3.20;;
1014;SDS011;8170;48.118;11.628;2023-02-25T04:42:58;3.85;;;3.10;;
1014;SDS011;8170;48.118;11.628;2023-02-25T04:44:00;4.63;;;3.40;;
1014;SDS011;8170;48.118;11.628;2023-02-25T04:45:05;4.30;;;3.47;;
1014;SDS011;8170;48.118;11.628;2023-02-25T04:46:09;4.13;;;3.40;;
1014;SDS011;8170;48.118;11.628;2023-02-25T04:47:12;3.72;;;2.90;;
1014;SDS011;8170;48.118;11.628;2023-02-25T04:48:14;4.53;;;3.60;;
1014;SDS011;8170;48.118;11.628;2023-02-25T04:49:24;4.43;;;3.50;;
1014;SDS011;8170;48.118;11.628;2023-02-25T04:50:26;3.83;;;3.40;;
1014;SDS011;8170;48.118;11.628;2023-02-25T04:51:29;6.80;;;3.85;;
1014;SDS011;8170;48.118;11.628;2023-02-25T04:52:33;4.20;;;3.40;;
1014;SDS011;8170;48.118;11.628;2023-02-25T04:53:36;4.20;;;3.40;;
1014;SDS011;8170;48.118;11.628;2023-02-25T04:54:38;6.63;;;4.20;;
1014;SDS011;8170;48.118;11.628;2023-02-25T04:55:42;4.97;;;3.78;;
1014;SDS011;8170;48.118;11.628;2023-02-25T04:56:44;4.70;;;3.80;;
1014;SDS011;8170;48.118;11.628;2023-02-25T04:57:47;5.07;;;3.17;;
1014;SDS011;8170;48.118;11.628;2023-02-25T04:58:49;4.90;;;3.60;;
1014;SDS011;8170;48.118;11.628;2023-02-25T04:59:52;3.67;;;3.15;;
1014;SDS011;8170;48.118;11.628;2023-02-25T05:00:54;3.88;;;3.28;;
1014;SDS011;8170;48.118;11.628;2023-02-25T05:01:58;6.70;;;4.30;;
1014;SDS011;8170;48.118;11.628;2023-02-25T05:03:00;4.70;;;4.05;;
1014;SDS011;8170;48.118;11.628;2023-02-25T05:04:03;5.05;;;3.25;;
1014;SDS011;8170;48.118;11.628;2023-02-25T05:05:06;3.65;;;3.35;;
1014;SDS011;8170;48.118;11.628;2023-02-25T05:06:09;5.32;;;3.55;;
1014;SDS011;8170;48.118;11.628;2023-02-25T05:07:12;5.35;;;4.00;;
1014;SDS011;8170;48.118;11.628;2023-02-25T05:08:16;5.13;;;4.15;;
1014;SDS011;8170;48.118;11.628;2023-02-25T05:09:18;3.95;;;3.38;;
1014;SDS011;8170;48.118;11.628;2023-02-25T05:10:22;4.90;;;4.30;;
1014;SDS011;8170;48.118;11.628;2023-02-25T05:11:24;5.20;;;4.40;;
1014;SDS011;8170;48.118;11.628;2023-02-25T05:12:28;6.07;;;4.40;;
1014;SDS011;8170;48.118;11.628;2023-02-25T05:13:31;5.25;;;4.43;;
1014;SDS011;8170;48.118;11.628;2023-02-25T05:14:35;5.88;;;4.70;;
1014;SDS011;8170;48.118;11.628;2023-02-25T05:15:38;6.53;;;5.80;;
1014;SDS011;8170;48.118;11.628;2023-02-25T05:16:41;5.88;;;4.65;;
1014;SDS011;8170;48.118;11.628;2023-02-25T05:17:43;6.05;;;4.63;;
1014;SDS011;8170;48.118;11.628;2023-02-25T05:18:46;5.82;;;4.70;;
1014;SDS011;8170;48.118;11.628;2023-02-25T05:19:48;4.85;;;4.35;;
1014;SDS011;8170;48.118;11.628;2023-02-25T05:20:51;6.50;;;5.40;;
1014;SDS011;8170;48.118;11.628;2023-02-25T05:21:54;6.50;;;4.95;;
1014;SDS011;8170;48.118;11.628;2023-02-25T05:22:57;6.90;;;5.40;;
1014;SDS011;8170;48.118;11.628;2023-02-25T05:24:00;7.07;;;5.03;;
1014;SDS011;8170;48.118;11.628;2023-02-25T05:25:04;9.10;;;6.00;;
1014;SDS011;8170;48.118;11.628;2023-02-25T05:26:07;7.82;;;6.35;;
1014;SDS011;8170;48.118;11.628;2023-02-25T05:27:12;7.88;;;5.40;;
1014;SDS011;8170;48.118;11.628;2023-02-25T05:28:14;9.45;;;5.97;;
1014;SDS011;8170;48.118;11.628;2023-02-25T05:29:17;7.70;;;6.35;;
1014;SDS011;8170;48.118;11.628;2023-02-25T05:30:20;6.72;;;5.70;;
1014;SDS011;8170;48.118;11.628;2023-02-25T05:31:23;9.80;;;6.40;;
1014;SDS011;8170;48.118;11.628;2023-02-25T05:32:28;6.97;;;5.90;;
1014;SDS011;8170;48.118;11.628;2023-02-25T05:33:30;7.15;;;6.18;;
1014;SDS011;8170;48.118;11.628;2023-02-25T05:34:33;9.25;;;6.97;;
1014;SDS011;8170;48.118;11.628;2023-02-25T05:35:38;8.90;;;6.90;;
1014;SDS011;8170;48.118;11.628;2023-02-25T05:36:41;9.50;;;7.32;;
1014;SDS011;8170;48.118;11.628;2023-02-25T05:37:43;10.93;;;7.05;;
1014;SDS011;8170;48.118;11.628;2023-02-25T05:38:46;9.70;;;7.00;;
1014;SDS011;8170;48.118;11.628;2023-02-25T05:39:50;7.95;;;6.38;;
1014;SDS011;8170;48.118;11.628;2023-02-25T05:40:53;8.68;;;6.93;;
1014;SDS011;8170;48.118;11.628;2023-02-25T05:41:55;9.48;;;6.88;;
1014;SDS011;8170;48.118;11.628;2023-02-25T05:42:58;8.60;;;7.03;;
1014;SDS011;8170;48.118;11.628;2023-02-25T05:44:00;9.10;;;6.72;;
1014;SDS011;8170;48.118;11.628;2023-02-25T05:45:04;8.70;;;6.38;;
1014;SDS011;8170;48.118;11.628;2023-02-25T05:46:07;7.15;;;5.80;;
1014;SDS011;8170;48.118;11.628;2023-02-25T05:47:12;8.32;;;6.90;;
1014;SDS011;8170;48.118;11.628;2023-02-25T05:48:15;8.18;;;6.65;;
1014;SDS011;8170;48.118;11.628;2023-02-25T05:49:18;7.55;;;6.30;;
1014;SDS011;8170;48.118;11.628;2023-02-25T05:50:21;9.00;;;6.85;;
1014;SDS011;8170;48.118;11.628;2023-02-25T05:51:24;8.60;;;6.28;;
1014;SDS011;8170;48.118;11.628;2023-02-25T05:52:26;9.38;;;7.10;;
1014;SDS011;8170;48.118;11.628;2023-02-25T05:53:29;7.85;;;6.57;;
1014;SDS011;8170;48.118;11.628;2023-02-25T05:54:32;7.40;;;5.88;;
1014;SDS011;8170;48.118;11.628;2023-02-25T05:55:40;7.85;;;6.80;;
1014;SDS011;8170;48.118;11.628;2023-02-25T05:56:42;9.65;;;7.20;;
1014;SDS011;8170;48.118;11.628;2023-02-25T05:57:45;9.00;;;6.50;;
1014;SDS011;8170;48.118;11.628;2023-02-25T05:58:47;8.48;;;6.47;;
1014;SDS011;8170;48.118;11.628;2023-02-25T05:59:50;9.48;;;7.43;;
1014;SDS011;8170;48.118;11.628;2023-02-25T06:00:52;9.82;;;7.40;;
1014;SDS011;8170;48.118;11.628;2023-02-25T06:01:56;9.57;;;7.55;;
1014;SDS011;8170;48.118;11.628;2023-02-25T06:02:58;8.85;;;7.30;;
1014;SDS011;8170;48.118;11.628;2023-02-25T06:04:01;9.95;;;7.63;;
1014;SDS011;8170;48.118;11.628;2023-02-25T06:05:03;10.43;;;7.57;;
1014;SDS011;8170;48.118;11.628;2023-02-25T06:06:08;10.00;;;7.60;;
1014;SDS011;8170;48.118;11.628;2023-02-25T06:07:13;7.75;;;6.00;;
1014;SDS011;8170;48.118;11.628;2023-02-25T06:08:16;9.18;;;7.80;;
1014;SDS011;8170;48.118;11.628;2023-02-25T06:09:18;8.63;;;7.00;;
1014;SDS011;8170;48.118;11.628;2023-02-25T06:10:22;9.50;;;7.35;;
1014;SDS011;8170;48.118;11.628;2023-02-25T06:11:28;9.43;;;7.03;;
1014;SDS011;8170;48.118;11.628;2023-02-25T06:12:32;8.85;;;7.40;;
1014;SDS011;8170;48.118;11.628;2023-02-25T06:13:35;11.73;;;7.38;;
1014;SDS011;8170;48.118;11.628;2023-02-25T06:14:38;8.40;;;6.45;;
1014;SDS011;8170;48.118;11.628;2023-02-25T06:15:41;8.05;;;6.45;;
1014;SDS011;8170;48.118;11.628;2023-02-25T06:16:43;10.10;;;7.93;;
1014;SDS011;8170;48.118;11.628;2023-02-25T06:17:46;9.65;;;7.65;;
1014;SDS011;8170;48.118;11.628;2023-02-25T06:18:48;10.95;;;7.93;;
1014;SDS011;8170;48.118;11.628;2023-02-25T06:19:52;10.10;;;7.75;;
1014;SDS011;8170;48.118;11.628;2023-02-25T06:20:54;9.02;;;7.55;;
1014;SDS011;8170;48.118;11.628;2023-02-25T06:21:57;10.73;;;7.57;;
1014;SDS011;8170;48.118;11.628;2023-02-25T06:22:59;10.13;;;8.30;;
1014;SDS011;8170;48.118;11.628;2023-02-25T06:24:04;14.23;;;8.55;;
1014;SDS011;8170;48.118;11.628;2023-02-25T06:25:07;9.93;;;7.40;;
1014;SDS011;8170;48.118;11.628;2023-02-25T06:26:11;10.82;;;7.15;;
1014;SDS011;8170;48.118;11.628;2023-02-25T06:27:17;9.15;;;7.35;;
1014;SDS011;8170;48.118;11.628;2023-02-25T06:28:19;10.65;;;8.27;;
1014;SDS011;8170;48.118;11.628;2023-02-25T06:29:22;9.80;;;7.40;;
1014;SDS011;8170;48.118;11.628;2023-02-25T06:30:24;12.10;;;8.32;;
1014;SDS011;8170;48.118;11.628;2023-02-25T06:31:28;9.32;;;7.38;;
1014;SDS011;8170;48.118;11.628;2023-02-25T06:32:30;11.55;;;7.97;;
1014;SDS011;8170;48.118;11.628;2023-02-25T06:33:34;11.25;;;8.18;;
1014;SDS011;8170;48.118;11.628;2023-02-25T06:34:36;8.65;;;7.22;;
1014;SDS011;8170;48.118;11.628;2023-02-25T06:35:39;8.50;;;7.30;;
1014;SDS011;8170;48.118;11.628;2023-02-25T06:36:41;10.20;;;8.00;;
1014;SDS011;8170;48.118;11.628;2023-02-25T06:37:45;10.73;;;8.10;;
1014;SDS011;8170;48.118;11.628;2023-02-25T06:38:47;11.38;;;7.75;;
1014;SDS011;8170;48.118;11.628;2023-02-25T06:39:51;11.07;;;8.63;;
1014;SDS011;8170;48.118;11.628;2023-02-25T06:40:53;9.77;;;7.55;;